Time;durP1;ratioP1;P1;durP2;ratioP2;P2;SDS_P1;SDS_P2;PMS_P1;PMS_P2;Temp;Humidity;BMP_temperature;BMP_pressure;BME280_temperature;BME280_humidity;BME280_pressure;Samples;Min_cycle;Max_cycle;Signal;HPM_P1;HPM_P2
2023/05/17 00:01:34;;;;;;;11.82;2.17;;;21.50;46.10;;;;;;4976265;28;20182;-74
2023/05/17 00:04:00;;;;;;;6.15;1.65;;;21.50;46.20;;;;;;4963002;28;20097;-74
2023/05/17 00:06:25;;;;;;;5.32;1.73;;;21.50;46.10;;;;;;4978994;28;20391;-75
2023/05/17 00:08:51;;;;;;;4.68;1.45;;;21.60;46.40;;;;;;4978855;28;20033;-74
2023/05/17 00:11:17;;;;;;;4.78;1.80;;;21.50;46.40;;;;;;4990651;28;20484;-74
2023/05/17 00:13:43;;;;;;;5.45;1.60;;;21.50;46.40;;;;;;4967780;28;20488;-75
2023/05/17 00:16:09;;;;;;;3.97;1.55;;;21.50;46.90;;;;;;4993035;28;20023;-75
2023/05/17 00:18:35;;;;;;;5.07;2.08;;;21.50;46.40;;;;;;4990045;28;20080;-75
2023/05/17 00:21:01;;;;;;;6.18;1.80;;;21.50;46.70;;;;;;4983632;28;20046;-75
2023/05/17 00:23:26;;;;;;;4.65;1.67;;;21.60;46.80;;;;;;4990936;28;20034;-74
2023/05/17 00:25:52;;;;;;;6.22;1.70;;;21.50;46.70;;;;;;4958033;28;20041;-75
2023/05/17 00:28:18;;;;;;;5.20;1.73;;;21.50;46.60;;;;;;4991585;28;20045;-75
2023/05/17 00:30:44;;;;;;;4.28;1.60;;;21.50;46.90;;;;;;4992942;28;20022;-75
2023/05/17 00:33:09;;;;;;;3.03;1.33;;;21.50;46.60;;;;;;4992031;28;20034;-74
2023/05/17 00:35:35;;;;;;;4.82;1.83;;;21.50;46.90;;;;;;4980545;28;20092;-74
2023/05/17 00:38:01;;;;;;;3.92;1.55;;;21.50;46.90;;;;;;4962070;28;20049;-74
2023/05/17 00:40:27;;;;;;;3.30;1.55;;;21.50;46.90;;;;;;4959823;28;20038;-74
2023/05/17 00:42:52;;;;;;;4.53;1.80;;;21.50;46.70;;;;;;4959585;28;20129;-74
2023/05/17 00:45:21;;;;;;;4.38;1.70;;;21.50;47.10;;;;;;5001220;28;20030;-74
2023/05/17 00:47:46;;;;;;;4.13;1.70;;;21.50;46.80;;;;;;4999888;28;20037;-74
2023/05/17 00:50:12;;;;;;;5.88;2.13;;;21.50;47.00;;;;;;4960854;28;20026;-74
2023/05/17 00:52:39;;;;;;;3.63;1.40;;;21.50;46.90;;;;;;4980900;28;20489;-74
2023/05/17 00:55:05;;;;;;;8.45;1.77;;;21.50;47.00;;;;;;4975825;28;20034;-74
2023/05/17 00:57:31;;;;;;;5.90;1.80;;;21.50;47.60;;;;;;4990059;28;20047;-74
2023/05/17 00:59:57;;;;;;;7.00;2.17;;;21.50;46.80;;;;;;4989236;28;20089;-75
2023/05/17 01:02:23;;;;;;;6.70;1.77;;;21.50;47.40;;;;;;4990664;28;20034;-74
2023/05/17 01:04:49;;;;;;;5.60;1.77;;;21.50;47.70;;;;;;4991292;28;20044;-74
2023/05/17 01:07:19;;;;;;;6.55;1.80;;;21.50;48.20;;;;;;4972742;28;20101;-74
2023/05/17 01:09:46;;;;;;;8.00;1.83;;;21.50;47.90;;;;;;4989165;28;20117;-75
2023/05/17 01:12:26;;;;;;;4.65;1.63;;;21.50;47.80;;;;;;4974015;28;20027;-74
2023/05/17 01:15:02;;;;;;;5.95;1.80;;;21.50;47.30;;;;;;4955564;28;20114;-74
2023/05/17 01:17:37;;;;;;;5.03;1.88;;;21.50;47.20;;;;;;4972598;28;20041;-74
2023/05/17 01:20:25;;;;;;;6.85;2.08;;;21.50;47.70;;;;;;4982692;28;20125;-74
2023/05/17 01:23:23;;;;;;;4.68;1.98;;;21.50;48.00;;;;;;4972368;28;20400;-75
2023/05/17 01:26:14;;;;;;;6.55;2.03;;;21.50;48.20;;;;;;4988555;28;20122;-74
2023/05/17 01:28:42;;;;;;;4.40;1.60;;;21.50;47.80;;;;;;4989768;28;20092;-74
2023/05/17 01:31:10;;;;;;;6.18;1.92;;;21.50;47.90;;;;;;4976324;28;20034;-73
2023/05/17 01:33:37;;;;;;;4.75;1.52;;;21.50;47.80;;;;;;4975722;28;20491;-73
2023/05/17 01:36:03;;;;;;;4.35;1.80;;;21.40;48.00;;;;;;4991192;28;20022;-74
2023/05/17 01:38:29;;;;;;;5.13;1.63;;;21.50;48.20;;;;;;4977312;28;20035;-74
2023/05/17 01:41:13;;;;;;;8.18;2.08;;;21.40;48.30;;;;;;4989959;28;20102;-74
2023/05/17 01:44:03;;;;;;;6.97;2.20;;;21.50;47.70;;;;;;4958859;28;20491;-74
2023/05/17 01:46:39;;;;;;;7.07;1.60;;;21.40;47.50;;;;;;4974440;28;20094;-74
2023/05/17 01:49:09;;;;;;;4.80;1.80;;;21.50;47.80;;;;;;4972272;28;20026;-74
2023/05/17 01:51:44;;;;;;;4.90;1.70;;;21.40;48.00;;;;;;4975523;28;20522;-73
2023/05/17 01:54:11;;;;;;;6.15;2.05;;;21.50;47.90;;;;;;4989638;28;20027;-74
2023/05/17 01:56:45;;;;;;;6.35;2.08;;;21.40;47.80;;;;;;4974149;28;20106;-74
2023/05/17 01:59:18;;;;;;;3.17;1.60;;;21.50;48.20;;;;;;4973331;28;20030;-74
2023/05/17 02:01:44;;;;;;;7.03;2.40;;;21.50;48.20;;;;;;4965926;28;20044;-74
2023/05/17 02:04:11;;;;;;;5.38;1.90;;;21.50;48.50;;;;;;4989370;28;20046;-74
2023/05/17 02:06:36;;;;;;;4.93;2.05;;;21.50;48.60;;;;;;4987504;28;20034;-75
2023/05/17 02:09:02;;;;;;;5.15;1.67;;;21.50;48.50;;;;;;4955575;28;20033;-75
2023/05/17 02:11:28;;;;;;;5.88;1.80;;;21.50;48.80;;;;;;4980081;28;20077;-75
2023/05/17 02:13:54;;;;;;;5.38;1.60;;;21.50;48.80;;;;;;4968048;28;20102;-75
2023/05/17 02:16:20;;;;;;;6.80;2.38;;;21.50;48.50;;;;;;4975736;28;20469;-75
2023/05/17 02:18:48;;;;;;;8.10;2.58;;;21.50;48.50;;;;;;4974203;28;20032;-75
2023/05/17 02:21:13;;;;;;;5.82;1.90;;;21.50;48.60;;;;;;4991417;28;20109;-75
2023/05/17 02:23:39;;;;;;;6.50;1.92;;;21.50;48.40;;;;;;4973128;28;20026;-75
2023/05/17 02:26:05;;;;;;;7.10;2.13;;;21.50;48.40;;;;;;4988962;28;20037;-75
2023/05/17 02:28:33;;;;;;;6.90;2.28;;;21.40;48.30;;;;;;4979890;28;20105;-75
2023/05/17 02:31:01;;;;;;;3.65;1.75;;;21.50;48.40;;;;;;4974683;28;20026;-75
2023/05/17 02:33:27;;;;;;;4.82;2.10;;;21.40;48.20;;;;;;4974534;28;20400;-76
2023/05/17 02:35:52;;;;;;;5.18;2.00;;;21.40;48.40;;;;;;4986408;28;20463;-75
2023/05/17 02:38:18;;;;;;;4.50;1.73;;;21.50;48.30;;;;;;4960606;28;20400;-75
2023/05/17 02:40:44;;;;;;;5.50;2.13;;;21.50;48.30;;;;;;4992423;28;20040;-75
2023/05/17 02:43:10;;;;;;;5.57;2.08;;;21.50;48.50;;;;;;4978813;28;20034;-75
2023/05/17 02:45:36;;;;;;;6.90;2.08;;;21.40;48.40;;;;;;4978911;28;20427;-75
2023/05/17 02:48:01;;;;;;;6.38;1.88;;;21.40;48.80;;;;;;4978495;28;20053;-75
2023/05/17 02:50:28;;;;;;;8.65;2.10;;;21.40;48.40;;;;;;4945764;28;20050;-76
2023/05/17 02:52:54;;;;;;;4.90;1.80;;;21.40;48.60;;;;;;4976636;28;20034;-75
2023/05/17 02:55:23;;;;;;;5.80;1.97;;;21.40;48.40;;;;;;4981729;28;20103;-75
2023/05/17 02:57:49;;;;;;;8.20;2.50;;;21.40;48.60;;;;;;4989532;28;20783;-75
2023/05/17 03:00:15;;;;;;;8.20;2.38;;;21.40;48.50;;;;;;4957901;28;20149;-75
2023/05/17 03:02:41;;;;;;;4.97;1.92;;;21.40;48.60;;;;;;4960675;28;20055;-75
2023/05/17 03:05:07;;;;;;;5.22;2.03;;;21.40;48.70;;;;;;4982550;28;20030;-75
2023/05/17 03:07:35;;;;;;;6.75;2.08;;;21.40;49.00;;;;;;4974400;28;20027;-75
2023/05/17 03:10:01;;;;;;;4.72;1.90;;;21.40;49.30;;;;;;4976728;28;20045;-75
2023/05/17 03:12:33;;;;;;;5.88;2.03;;;21.40;49.30;;;;;;4976330;28;20108;-75
2023/05/17 03:14:59;;;;;;;6.60;1.85;;;21.50;49.60;;;;;;4981831;28;20072;-75
2023/05/17 03:17:25;;;;;;;10.82;2.20;;;21.40;49.60;;;;;;4974937;28;20038;-75
2023/05/17 03:19:51;;;;;;;5.25;2.17;;;21.40;49.50;;;;;;4975996;28;20034;-76
2023/05/17 03:22:16;;;;;;;4.70;2.00;;;21.40;49.60;;;;;;4967449;28;20035;-75
2023/05/17 03:24:42;;;;;;;5.07;2.25;;;21.40;49.30;;;;;;4974344;28;20026;-74
2023/05/17 03:27:09;;;;;;;6.28;2.03;;;21.40;49.10;;;;;;4976290;28;20034;-74
2023/05/17 03:29:35;;;;;;;4.57;2.28;;;21.40;48.90;;;;;;4982089;28;20037;-75
2023/05/17 03:32:01;;;;;;;4.63;1.80;;;21.40;49.00;;;;;;4978669;28;20034;-75
2023/05/17 03:34:27;;;;;;;5.30;1.90;;;21.40;49.00;;;;;;4979717;28;20027;-75
2023/05/17 03:36:53;;;;;;;7.78;2.17;;;21.40;49.30;;;;;;4993549;28;20034;-74
2023/05/17 03:39:19;;;;;;;5.07;2.03;;;21.40;48.90;;;;;;4979760;28;20030;-75
2023/05/17 03:41:45;;;;;;;5.90;2.17;;;21.40;49.30;;;;;;4973712;28;20124;-74
2023/05/17 03:44:12;;;;;;;3.92;1.92;;;21.40;49.30;;;;;;4975812;28;20036;-74
2023/05/17 03:46:38;;;;;;;5.55;2.10;;;21.40;48.80;;;;;;4979548;28;20030;-74
2023/05/17 03:49:04;;;;;;;4.78;2.03;;;21.40;49.10;;;;;;4978516;28;20058;-73
2023/05/17 03:51:31;;;;;;;8.15;2.17;;;21.40;49.40;;;;;;4982777;28;20507;-74
2023/05/17 03:54:00;;;;;;;4.78;1.92;;;21.40;49.40;;;;;;4980541;28;20022;-73
2023/05/17 03:56:27;;;;;;;5.57;1.98;;;21.40;48.90;;;;;;4962650;28;20066;-74
2023/05/17 03:58:53;;;;;;;5.90;2.30;;;21.40;49.30;;;;;;4980755;28;20459;-74
2023/05/17 04:01:19;;;;;;;5.88;2.22;;;21.50;49.00;;;;;;4986384;28;20061;-74
2023/05/17 04:03:46;;;;;;;6.47;2.20;;;21.40;48.80;;;;;;4962862;28;20034;-74
2023/05/17 04:06:13;;;;;;;5.38;2.15;;;21.50;49.40;;;;;;4976044;28;20085;-74
2023/05/17 04:08:41;;;;;;;6.65;2.00;;;21.50;49.10;;;;;;4974897;28;20080;-74
2023/05/17 04:11:11;;;;;;;5.93;2.47;;;21.40;49.10;;;;;;4980471;28;20030;-74
2023/05/17 04:13:41;;;;;;;5.97;2.13;;;21.50;48.80;;;;;;4973807;28;20121;-74
2023/05/17 04:16:08;;;;;;;4.57;2.13;;;21.50;49.10;;;;;;4954777;28;20404;-74
2023/05/17 04:18:36;;;;;;;6.55;2.47;;;21.50;49.30;;;;;;4972608;28;20500;-74
2023/05/17 04:21:03;;;;;;;7.03;2.67;;;21.50;48.90;;;;;;4975389;28;20102;-74
2023/05/17 04:23:29;;;;;;;7.97;2.88;;;21.50;49.40;;;;;;4974728;28;20037;-74
2023/05/17 04:25:57;;;;;;;5.53;2.45;;;21.50;48.90;;;;;;4973514;28;20030;-75
2023/05/17 04:28:24;;;;;;;6.68;2.70;;;21.50;49.00;;;;;;4973676;28;20034;-76
2023/05/17 04:30:51;;;;;;;5.10;2.10;;;21.50;49.20;;;;;;4962696;28;20021;-75
2023/05/17 04:33:17;;;;;;;5.80;2.65;;;21.50;49.40;;;;;;4978199;28;20054;-76
2023/05/17 04:35:44;;;;;;;9.18;2.55;;;21.50;49.00;;;;;;4995144;28;20025;-75
2023/05/17 04:38:11;;;;;;;5.50;2.17;;;21.50;49.20;;;;;;4969589;28;20041;-76
2023/05/17 04:40:37;;;;;;;7.15;2.65;;;21.50;49.20;;;;;;4981120;28;20030;-76
2023/05/17 04:43:03;;;;;;;7.25;2.53;;;21.50;49.00;;;;;;4957294;28;20133;-76
2023/05/17 04:45:29;;;;;;;6.45;2.60;;;21.50;49.30;;;;;;4974631;28;20018;-76
2023/05/17 04:47:55;;;;;;;8.32;2.63;;;21.50;49.20;;;;;;4973316;28;20034;-76
2023/05/17 04:50:21;;;;;;;7.70;3.05;;;21.50;49.20;;;;;;4974242;28;20033;-75
2023/05/17 04:52:47;;;;;;;7.15;2.88;;;21.50;49.00;;;;;;4972174;28;20029;-76
2023/05/17 04:55:13;;;;;;;7.22;3.15;;;21.50;49.20;;;;;;4964767;28;20060;-74
2023/05/17 04:57:39;;;;;;;8.50;3.05;;;21.50;49.00;;;;;;4976580;28;20031;-75
2023/05/17 05:00:08;;;;;;;8.80;3.05;;;21.50;49.30;;;;;;4959238;28;20034;-75
2023/05/17 05:02:35;;;;;;;9.43;3.00;;;21.50;49.20;;;;;;4975018;28;20034;-75
2023/05/17 05:05:06;;;;;;;9.38;3.10;;;21.50;49.20;;;;;;4975044;28;20033;-75
2023/05/17 05:07:32;;;;;;;8.45;3.00;;;21.50;49.30;;;;;;4973745;28;20058;-76
2023/05/17 05:09:59;;;;;;;6.57;2.90;;;21.50;49.30;;;;;;4969618;28;20407;-75
2023/05/17 05:12:24;;;;;;;8.20;2.90;;;21.50;49.40;;;;;;4962289;28;20034;-75
2023/05/17 05:14:50;;;;;;;8.27;3.10;;;21.50;49.30;;;;;;4974729;28;20023;-75
2023/05/17 05:17:16;;;;;;;13.38;2.95;;;21.50;48.90;;;;;;4974480;28;20097;-76
2023/05/17 05:19:42;;;;;;;16.83;3.10;;;21.60;49.60;;;;;;4974762;28;20026;-75
2023/05/17 05:22:08;;;;;;;9.68;3.00;;;21.60;49.70;;;;;;4956215;28;20097;-75
2023/05/17 05:24:36;;;;;;;10.70;2.92;;;21.60;49.60;;;;;;4972924;28;20118;-75
2023/05/17 05:27:02;;;;;;;12.70;3.60;;;21.50;48.70;;;;;;4978637;28;20112;-75
2023/05/17 05:29:29;;;;;;;14.35;4.20;;;21.40;46.80;;;;;;4977510;28;20034;-75
2023/05/17 05:31:55;;;;;;;13.15;4.13;;;21.20;45.50;;;;;;4974208;28;20022;-76
2023/05/17 05:34:21;;;;;;;17.92;3.78;;;21.10;44.70;;;;;;5003334;28;20030;-75
2023/05/17 05:36:48;;;;;;;16.88;4.38;;;21.00;45.10;;;;;;4964148;28;20576;-75
2023/05/17 05:39:15;;;;;;;14.75;3.85;;;21.10;45.20;;;;;;4982545;28;20113;-75
2023/05/17 05:41:41;;;;;;;21.05;3.97;;;21.10;45.60;;;;;;4972696;28;20038;-75
2023/05/17 05:44:06;;;;;;;18.83;4.65;;;21.20;46.30;;;;;;4980282;28;20045;-75
2023/05/17 05:46:32;;;;;;;13.57;4.68;;;21.30;45.50;;;;;;4974639;28;20037;-75
2023/05/17 05:49:01;;;;;;;11.00;3.47;;;21.30;45.20;;;;;;4982168;28;20040;-75
2023/05/17 05:51:28;;;;;;;16.02;3.88;;;21.30;45.10;;;;;;4969726;28;20030;-75
2023/05/17 05:53:54;;;;;;;14.35;4.07;;;21.30;45.60;;;;;;4988199;28;20092;-75
2023/05/17 05:56:20;;;;;;;11.77;3.58;;;21.40;45.50;;;;;;4972701;28;20735;-76
2023/05/17 05:58:45;;;;;;;16.02;4.70;;;21.40;46.20;;;;;;4992941;28;20042;-75
2023/05/17 06:01:12;;;;;;;15.23;4.32;;;21.40;45.70;;;;;;4981603;28;20092;-75
2023/05/17 06:03:37;;;;;;;14.55;4.00;;;21.50;45.70;;;;;;5009472;28;20030;-75
2023/05/17 06:06:05;;;;;;;16.38;4.43;;;21.40;46.00;;;;;;4995213;28;20496;-75
2023/05/17 06:08:31;;;;;;;16.30;4.13;;;21.60;48.60;;;;;;4991142;28;20030;-75
2023/05/17 06:10:57;;;;;;;17.58;5.03;;;21.60;46.50;;;;;;4990311;28;20456;-75
2023/05/17 06:13:23;;;;;;;15.13;4.18;;;21.60;48.40;;;;;;4990954;28;20101;-74
2023/05/17 06:15:48;;;;;;;17.92;4.75;;;21.60;47.30;;;;;;4987365;28;20022;-75
2023/05/17 06:18:14;;;;;;;17.13;4.80;;;21.60;50.60;;;;;;5014716;28;20065;-75
2023/05/17 06:20:40;;;;;;;15.10;4.65;;;21.60;47.70;;;;;;5013105;28;20092;-75
2023/05/17 06:23:06;;;;;;;21.33;5.60;;;21.60;48.10;;;;;;5001469;28;20027;-74
2023/05/17 06:25:32;;;;;;;23.67;5.35;;;21.60;49.10;;;;;;4995141;28;20477;-74
2023/05/17 06:27:57;;;;;;;27.50;7.82;;;21.60;48.20;;;;;;4993648;28;20057;-75
2023/05/17 06:30:23;;;;;;;37.90;10.85;;;21.70;51.70;;;;;;4994271;28;20536;-75
2023/05/17 06:32:49;;;;;;;45.95;11.75;;;21.70;51.50;;;;;;5006389;28;20053;-75
2023/05/17 06:35:15;;;;;;;39.13;11.20;;;21.80;54.70;;;;;;5014806;28;20026;-74
2023/05/17 06:37:41;;;;;;;28.92;10.18;;;21.80;53.10;;;;;;5006858;28;20033;-74
2023/05/17 06:40:09;;;;;;;32.08;11.10;;;21.70;52.20;;;;;;5008711;28;20030;-75
2023/05/17 06:42:35;;;;;;;31.77;11.18;;;21.70;54.50;;;;;;4993045;28;20065;-74
2023/05/17 06:45:01;;;;;;;36.80;11.32;;;21.70;51.90;;;;;;4977934;28;20031;-75
2023/05/17 06:47:27;;;;;;;37.63;9.45;;;21.70;53.10;;;;;;5001994;28;20380;-75
2023/05/17 06:49:52;;;;;;;27.45;8.07;;;21.70;52.90;;;;;;4997875;28;20042;-75
2023/05/17 06:52:18;;;;;;;24.13;7.22;;;21.60;51.60;;;;;;4999805;28;20018;-75
2023/05/17 06:54:44;;;;;;;35.00;8.48;;;21.60;50.70;;;;;;5001666;28;20022;-75
2023/05/17 06:57:10;;;;;;;23.98;7.35;;;21.70;50.40;;;;;;5008349;28;20030;-75
2023/05/17 06:59:36;;;;;;;27.58;8.02;;;21.60;50.00;;;;;;5011844;28;20057;-75
2023/05/17 07:02:02;;;;;;;27.38;7.32;;;21.60;50.20;;;;;;5011313;28;20033;-75
2023/05/17 07:04:28;;;;;;;22.10;7.20;;;21.70;50.70;;;;;;5001119;28;20034;-76
2023/05/17 07:06:54;;;;;;;22.48;7.15;;;21.70;51.70;;;;;;5001524;28;20374;-76
2023/05/17 07:09:20;;;;;;;23.33;7.63;;;21.70;50.30;;;;;;4994675;28;20116;-76
2023/05/17 07:11:47;;;;;;;31.83;7.43;;;21.80;49.60;;;;;;4976146;28;20065;-74
2023/05/17 07:14:13;;;;;;;35.83;7.03;;;21.80;49.70;;;;;;4992408;28;20503;-74
2023/05/17 07:16:38;;;;;;;32.47;7.32;;;21.80;49.90;;;;;;4992210;28;20026;-75
2023/05/17 07:19:04;;;;;;;41.60;7.88;;;21.80;52.20;;;;;;4973957;28;20377;-76
2023/05/17 07:21:31;;;;;;;33.63;8.68;;;21.80;53.50;;;;;;4975492;28;20026;-76
2023/05/17 07:23:57;;;;;;;28.73;7.13;;;21.80;51.80;;;;;;4961136;28;20038;-76
2023/05/17 07:26:23;;;;;;;32.42;7.30;;;21.70;52.30;;;;;;4978494;28;20109;-75
2023/05/17 07:28:49;;;;;;;36.17;7.40;;;21.80;55.60;;;;;;4975515;28;20482;-75
2023/05/17 07:31:15;;;;;;;33.05;7.97;;;21.80;53.60;;;;;;4975959;28;20084;-76
2023/05/17 07:33:41;;;;;;;25.33;6.57;;;21.80;54.90;;;;;;4998656;28;20440;-76
2023/05/17 07:36:07;;;;;;;23.55;5.90;;;21.80;53.50;;;;;;4974967;28;20072;-74
2023/05/17 07:38:34;;;;;;;43.50;8.63;;;21.80;53.40;;;;;;4996630;28;20034;-75
2023/05/17 07:41:01;;;;;;;23.00;6.45;;;21.80;52.80;;;;;;5009294;28;20026;-76
2023/05/17 07:43:26;;;;;;;36.10;6.72;;;21.80;52.70;;;;;;4992769;28;20073;-74
2023/05/17 07:45:52;;;;;;;23.45;5.78;;;21.80;53.80;;;;;;4988251;28;20456;-74
2023/05/17 07:48:18;;;;;;;20.20;5.97;;;21.80;54.50;;;;;;4992649;28;20116;-75
2023/05/17 07:50:45;;;;;;;27.98;6.40;;;21.80;56.40;;;;;;5007282;28;20469;-75
2023/05/17 07:53:11;;;;;;;34.42;6.25;;;21.80;54.40;;;;;;4987996;28;20469;-73
2023/05/17 07:55:37;;;;;;;26.10;5.53;;;21.80;53.90;;;;;;4991338;28;20506;-75
2023/05/17 07:58:03;;;;;;;27.90;6.32;;;21.80;53.70;;;;;;4980132;28;20037;-76
2023/05/17 08:00:29;;;;;;;18.80;5.32;;;21.80;55.30;;;;;;4990632;28;20061;-75
2023/05/17 08:02:56;;;;;;;34.35;6.68;;;21.80;54.50;;;;;;4993393;28;20026;-75
2023/05/17 08:05:22;;;;;;;20.08;5.43;;;21.80;55.30;;;;;;4992996;28;20400;-76
2023/05/17 08:07:47;;;;;;;22.55;4.95;;;21.80;55.00;;;;;;5000251;28;20023;-76
2023/05/17 08:10:13;;;;;;;16.30;4.72;;;21.80;55.20;;;;;;5001416;28;20038;-76
2023/05/17 08:12:39;;;;;;;20.75;5.40;;;21.80;53.90;;;;;;4957399;28;20026;-76
2023/05/17 08:15:05;;;;;;;20.95;5.13;;;21.80;53.40;;;;;;4988551;28;20030;-76
2023/05/17 08:17:31;;;;;;;16.45;4.60;;;21.80;53.00;;;;;;4993075;28;20034;-76
2023/05/17 08:19:57;;;;;;;17.50;4.75;;;21.80;52.70;;;;;;4989582;28;20041;-76
2023/05/17 08:22:22;;;;;;;17.02;4.60;;;21.80;52.70;;;;;;4991416;28;20026;-76
2023/05/17 08:24:48;;;;;;;15.75;4.32;;;21.80;53.40;;;;;;4992892;28;20038;-76
2023/05/17 08:27:14;;;;;;;17.13;4.20;;;21.80;52.50;;;;;;4992752;28;20038;-76
2023/05/17 08:29:40;;;;;;;17.90;4.50;;;21.90;52.60;;;;;;4993210;28;20026;-76
2023/05/17 08:32:06;;;;;;;16.60;4.57;;;21.80;52.10;;;;;;4993050;28;20030;-77
2023/05/17 08:34:32;;;;;;;13.88;3.80;;;21.80;52.30;;;;;;4992117;28;20112;-76
2023/05/17 08:36:58;;;;;;;21.02;4.65;;;21.80;52.00;;;;;;4999631;28;20102;-77
2023/05/17 08:39:23;;;;;;;13.23;3.55;;;21.80;52.20;;;;;;4988075;28;20037;-77
2023/05/17 08:41:49;;;;;;;11.45;3.58;;;21.80;51.70;;;;;;4992662;28;20034;-76
2023/05/17 08:44:16;;;;;;;12.02;3.60;;;21.80;51.60;;;;;;4975483;28;20033;-77
2023/05/17 08:46:43;;;;;;;14.95;3.83;;;21.80;51.80;;;;;;4964828;28;20073;-76
2023/05/17 08:49:11;;;;;;;17.05;3.78;;;21.80;52.90;;;;;;4975051;28;20034;-75
2023/05/17 08:51:38;;;;;;;12.57;4.00;;;21.80;51.40;;;;;;4975562;28;20044;-77
2023/05/17 08:54:05;;;;;;;15.60;3.67;;;21.80;51.10;;;;;;4992590;28;20026;-77
2023/05/17 08:56:31;;;;;;;13.20;3.70;;;21.80;51.00;;;;;;4975325;28;20038;-77
2023/05/17 08:58:58;;;;;;;14.90;4.35;;;21.80;50.80;;;;;;4974917;28;20030;-75
2023/05/17 09:01:24;;;;;;;14.90;3.88;;;21.80;51.40;;;;;;4999487;28;20136;-75
2023/05/17 09:03:50;;;;;;;14.50;3.65;;;21.80;50.80;;;;;;4998914;28;20310;-75
2023/05/17 09:06:19;;;;;;;13.48;3.38;;;21.80;50.70;;;;;;4998416;28;20118;-75
2023/05/17 09:08:44;;;;;;;13.77;3.80;;;21.80;50.90;;;;;;4992559;28;20034;-76
2023/05/17 09:11:10;;;;;;;12.40;3.47;;;21.80;50.60;;;;;;4958391;28;20104;-75
2023/05/17 09:13:36;;;;;;;15.00;3.60;;;21.80;50.90;;;;;;4988154;28;20105;-75
2023/05/17 09:16:11;;;;;;;12.90;3.58;;;21.80;50.90;;;;;;4992121;28;20023;-74
2023/05/17 09:18:37;;;;;;;13.50;3.40;;;21.80;50.50;;;;;;4991903;28;20036;-75
2023/05/17 09:21:03;;;;;;;12.40;3.47;;;21.80;50.70;;;;;;4992323;28;20117;-75
2023/05/17 09:23:32;;;;;;;13.38;3.67;;;21.80;50.80;;;;;;4990235;28;20417;-75
2023/05/17 09:26:05;;;;;;;12.70;3.25;;;21.80;50.30;;;;;;4992199;28;20022;-75
2023/05/17 09:28:38;;;;;;;11.43;3.47;;;21.80;50.10;;;;;;5012007;23;20042;-74
2023/05/17 09:31:07;;;;;;;13.35;3.45;;;21.80;50.30;;;;;;4988872;28;20026;-75
2023/05/17 09:33:41;;;;;;;13.82;3.03;;;21.80;49.90;;;;;;4977687;28;20042;-74
2023/05/17 09:36:16;;;;;;;14.18;3.38;;;21.80;50.20;;;;;;5005050;28;20488;-75
2023/05/17 09:38:43;;;;;;;9.93;2.83;;;21.80;49.60;;;;;;4990588;28;20523;-74
2023/05/17 09:41:08;;;;;;;14.45;3.53;;;21.80;49.20;;;;;;4974513;28;20157;-75
2023/05/17 09:43:34;;;;;;;9.10;3.13;;;21.80;48.90;;;;;;4958808;28;20121;-75
2023/05/17 09:46:00;;;;;;;11.68;2.92;;;21.80;49.10;;;;;;5002792;28;20040;-74
2023/05/17 09:48:26;;;;;;;14.43;3.30;;;21.80;49.30;;;;;;5002829;28;20038;-73
2023/05/17 09:50:53;;;;;;;9.93;3.03;;;21.80;49.80;;;;;;4971253;28;20160;-73
2023/05/17 09:53:21;;;;;;;12.02;2.80;;;21.80;49.40;;;;;;4995087;28;20077;-74
2023/05/17 09:55:47;;;;;;;11.45;3.40;;;21.90;49.90;;;;;;4993888;28;20101;-75
2023/05/17 09:58:13;;;;;;;11.57;2.95;;;21.80;50.70;;;;;;4995393;28;20078;-74
2023/05/17 10:00:42;;;;;;;13.15;3.08;;;21.90;50.00;;;;;;4946598;28;20037;-74
2023/05/17 10:03:11;;;;;;;13.02;3.42;;;21.90;50.40;;;;;;5000724;28;20037;-75
2023/05/17 10:05:42;;;;;;;16.02;2.85;;;21.80;50.40;;;;;;4957696;28;20033;-74
2023/05/17 10:08:09;;;;;;;14.43;3.70;;;21.80;50.90;;;;;;4994673;28;20032;-74
2023/05/17 10:10:36;;;;;;;14.82;2.83;;;21.80;50.70;;;;;;4989455;28;20104;-74
2023/05/17 10:13:05;;;;;;;11.82;3.25;;;21.80;50.60;;;;;;5007575;28;20399;-74
2023/05/17 10:15:32;;;;;;;10.82;3.30;;;21.80;50.20;;;;;;5006034;28;20054;-75
2023/05/17 10:17:59;;;;;;;11.63;2.70;;;21.80;50.50;;;;;;5000039;28;20033;-74
2023/05/17 10:20:26;;;;;;;11.50;2.70;;;21.80;50.40;;;;;;4973360;28;20608;-75
2023/05/17 10:22:53;;;;;;;11.63;3.35;;;21.80;50.20;;;;;;5014930;28;20026;-74
2023/05/17 10:25:20;;;;;;;11.00;3.10;;;21.80;50.50;;;;;;4989393;28;20048;-74
2023/05/17 10:27:49;;;;;;;9.02;2.78;;;21.80;50.30;;;;;;5005758;28;20092;-75
2023/05/17 10:30:17;;;;;;;11.95;3.40;;;21.80;50.60;;;;;;5014727;28;20077;-75
2023/05/17 10:32:44;;;;;;;8.48;2.90;;;21.80;50.50;;;;;;4997345;28;20037;-75
2023/05/17 10:35:14;;;;;;;10.05;2.97;;;21.80;50.20;;;;;;5014944;28;20494;-75
2023/05/17 10:37:40;;;;;;;10.52;3.08;;;21.80;49.90;;;;;;5014477;28;20472;-75
2023/05/17 10:40:18;;;;;;;10.73;2.90;;;21.80;50.20;;;;;;4997181;28;20075;-75
2023/05/17 10:42:54;;;;;;;8.65;2.80;;;21.80;50.10;;;;;;4984440;28;20038;-74
2023/05/17 10:45:25;;;;;;;11.18;2.67;;;21.80;50.30;;;;;;4969559;28;20188;-75
2023/05/17 10:47:52;;;;;;;11.38;3.15;;;21.80;50.30;;;;;;4975473;28;20031;-74
2023/05/17 10:50:25;;;;;;;9.88;2.97;;;21.80;50.20;;;;;;4975454;28;20401;-74
2023/05/17 10:52:54;;;;;;;9.75;2.55;;;21.80;50.20;;;;;;4958338;28;20027;-75
2023/05/17 10:55:35;;;;;;;12.52;2.80;;;21.80;49.90;;;;;;4961279;28;20030;-75
2023/05/17 10:58:16;;;;;;;7.85;2.83;;;21.80;50.20;;;;;;4995848;28;20018;-75
2023/05/17 11:00:46;;;;;;;8.82;3.05;;;21.80;50.40;;;;;;4977235;28;20030;-75
2023/05/17 11:03:27;;;;;;;13.65;3.13;;;21.80;50.30;;;;;;4994896;28;20525;-74
2023/05/17 11:06:16;;;;;;;11.07;3.17;;;21.80;50.30;;;;;;4997351;28;20038;-75
2023/05/17 11:08:47;;;;;;;9.07;2.47;;;21.70;50.30;;;;;;4988056;28;20036;-75
2023/05/17 11:11:17;;;;;;;8.63;2.78;;;21.80;50.30;;;;;;5014298;28;20484;-74
2023/05/17 11:13:45;;;;;;;9.77;2.70;;;21.70;50.30;;;;;;4989370;28;20029;-74
2023/05/17 11:16:15;;;;;;;10.65;2.85;;;21.70;50.20;;;;;;5008589;28;20029;-74
2023/05/17 11:18:52;;;;;;;9.88;2.42;;;21.70;50.30;;;;;;5013669;28;20057;-74
2023/05/17 11:21:20;;;;;;;9.88;2.78;;;21.70;50.30;;;;;;4973375;28;20038;-74
2023/05/17 11:23:47;;;;;;;10.30;2.78;;;21.70;50.20;;;;;;5002356;28;20044;-75
2023/05/17 11:26:31;;;;;;;7.50;2.40;;;21.70;50.30;;;;;;5008963;28;20072;-74
2023/05/17 11:29:09;;;;;;;9.98;2.58;;;21.70;50.30;;;;;;5013386;28;20037;-74
2023/05/17 11:31:36;;;;;;;8.25;2.53;;;21.70;50.30;;;;;;4984216;28;20034;-75
2023/05/17 11:34:02;;;;;;;8.30;2.42;;;21.70;50.40;;;;;;5013781;28;20556;-74
2023/05/17 11:36:29;;;;;;;8.82;2.75;;;21.70;50.30;;;;;;5009590;28;20026;-74
2023/05/17 11:39:12;;;;;;;10.82;2.65;;;21.70;50.30;;;;;;4980112;28;20033;-74
2023/05/17 11:41:46;;;;;;;9.70;2.83;;;21.70;50.20;;;;;;4987966;28;20531;-74
2023/05/17 11:44:12;;;;;;;10.23;2.78;;;21.70;50.20;;;;;;4996109;28;20549;-74
2023/05/17 11:46:40;;;;;;;7.97;2.80;;;21.70;50.30;;;;;;5013440;28;20108;-74
2023/05/17 11:49:06;;;;;;;9.63;2.65;;;21.70;50.20;;;;;;5013082;28;20030;-74
2023/05/17 11:51:32;;;;;;;9.18;2.35;;;21.70;50.10;;;;;;5004451;28;20022;-74
2023/05/17 11:54:02;;;;;;;6.93;2.47;;;21.70;50.20;;;;;;5004472;28;20408;-74
2023/05/17 11:56:32;;;;;;;;;;;21.70;50.00;;;;;;5010569;28;20115;-74
2023/05/17 11:58:58;;;;;;;9.95;2.83;;;21.70;50.00;;;;;;5012920;28;19975;-74
2023/05/17 12:01:24;;;;;;;6.70;2.42;;;21.70;50.20;;;;;;5011665;28;20500;-73
2023/05/17 12:03:59;;;;;;;7.72;2.55;;;21.70;50.10;;;;;;4976636;28;20029;-73
2023/05/17 12:06:27;;;;;;;7.75;2.65;;;21.70;50.10;;;;;;4987656;28;20041;-73
2023/05/17 12:08:53;;;;;;;8.57;2.80;;;21.70;50.00;;;;;;4987365;28;20423;-74
2023/05/17 12:11:20;;;;;;;8.63;2.30;;;21.70;50.10;;;;;;4979682;28;20026;-73
2023/05/17 12:13:47;;;;;;;10.20;2.72;;;21.70;49.90;;;;;;4982868;28;20040;-74
2023/05/17 12:16:15;;;;;;;9.02;2.35;;;21.70;50.10;;;;;;5007895;28;20026;-74
2023/05/17 12:18:49;;;;;;;7.15;2.40;;;21.70;50.20;;;;;;4995059;28;20125;-74
2023/05/17 12:21:17;;;;;;;8.55;2.60;;;21.70;50.00;;;;;;4987981;28;20510;-73
2023/05/17 12:23:45;;;;;;;5.72;2.03;;;21.70;49.90;;;;;;5002342;28;20096;-73
2023/05/17 12:26:11;;;;;;;7.00;2.40;;;21.70;49.90;;;;;;4993197;28;20034;-74
2023/05/17 12:28:51;;;;;;;8.45;2.67;;;21.70;50.10;;;;;;4982464;28;20033;-73
2023/05/17 12:31:19;;;;;;;6.88;2.70;;;21.70;49.90;;;;;;4999399;28;20044;-74
2023/05/17 12:33:46;;;;;;;8.88;2.53;;;21.70;49.80;;;;;;4978245;28;20566;-73
2023/05/17 12:36:13;;;;;;;10.00;3.17;;;21.70;49.80;;;;;;5012666;28;20101;-73
2023/05/17 12:38:43;;;;;;;9.20;2.50;;;21.70;50.00;;;;;;4978611;28;20053;-74
2023/05/17 12:41:15;;;;;;;9.07;3.05;;;21.70;49.80;;;;;;5012512;28;20038;-74
2023/05/17 12:43:44;;;;;;;6.97;2.38;;;21.70;49.90;;;;;;5007735;28;20044;-74
2023/05/17 12:46:17;;;;;;;6.55;2.60;;;21.70;49.90;;;;;;4989467;28;20061;-74